sensor_id;sensor_type;location;lat;lon;timestamp;pressure;altitude;pressure_sealevel;temperature;humidity
76434;BME280;65265;53.200;6.080;2023-07-31T00:04:41;100743.06;;;16.70;100.00
76434;BME280;65265;53.200;6.080;2023-07-31T00:09:34;100729.25;;;16.65;100.00
76434;BME280;65265;53.200;6.080;2023-07-31T00:14:26;100731.72;;;16.59;100.00
76434;BME280;65265;53.200;6.080;2023-07-31T00:19:17;100728.19;;;16.51;100.00
76434;BME280;65265;53.200;6.080;2023-07-31T00:24:08;100721.25;;;16.49;100.00
76434;BME280;65265;53.200;6.080;2023-07-31T00:29:01;100723.00;;;16.50;100.00
76434;BME280;65265;53.200;6.080;2023-07-31T00:33:53;100722.09;;;16.48;100.00
76434;BME280;65265;53.200;6.080;2023-07-31T00:38:45;100716.94;;;16.48;100.00
76434;BME280;65265;53.200;6.080;2023-07-31T00:43:36;100719.53;;;16.49;100.00
76434;BME280;65265;53.200;6.080;2023-07-31T00:48:29;100703.22;;;16.50;100.00
76434;BME280;65265;53.200;6.080;2023-07-31T00:53:21;100702.44;;;16.57;100.00
76434;BME280;65265;53.200;6.080;2023-07-31T00:58:12;100707.63;;;16.60;100.00
76434;BME280;65265;53.200;6.080;2023-07-31T01:03:04;100702.44;;;16.57;100.00
76434;BME280;65265;53.200;6.080;2023-07-31T01:08:02;100693.84;;;16.58;100.00
76434;BME280;65265;53.200;6.080;2023-07-31T01:12:56;100705.88;;;16.56;100.00
76434;BME280;65265;53.200;6.080;2023-07-31T01:17:48;100695.53;;;16.56;100.00
76434;BME280;65265;53.200;6.080;2023-07-31T01:22:54;100693.84;;;16.57;100.00
76434;BME280;65265;53.200;6.080;2023-07-31T01:27:59;100697.28;;;16.57;100.00
76434;BME280;65265;53.200;6.080;2023-07-31T01:32:52;100690.34;;;16.53;100.00
76434;BME280;65265;53.200;6.080;2023-07-31T01:37:46;100688.56;;;16.49;100.00
76434;BME280;65265;53.200;6.080;2023-07-31T01:42:38;100685.16;;;16.50;100.00
76434;BME280;65265;53.200;6.080;2023-07-31T01:47:31;100681.72;;;16.51;100.00
76434;BME280;65265;53.200;6.080;2023-07-31T01:52:22;100676.47;;;16.45;100.00
76434;BME280;65265;53.200;6.080;2023-07-31T01:57:13;100659.25;;;16.44;100.00
76434;BME280;65265;53.200;6.080;2023-07-31T02:02:05;100653.97;;;16.38;100.00
76434;BME280;65265;53.200;6.080;2023-07-31T02:06:58;100655.69;;;16.36;100.00
76434;BME280;65265;53.200;6.080;2023-07-31T02:11:49;100652.16;;;16.31;100.00
76434;BME280;65265;53.200;6.080;2023-07-31T02:16:41;100649.56;;;16.33;100.00
76434;BME280;65265;53.200;6.080;2023-07-31T02:21:32;100639.22;;;16.30;100.00
76434;BME280;65265;53.200;6.080;2023-07-31T02:26:25;100635.72;;;16.26;100.00
76434;BME280;65265;53.200;6.080;2023-07-31T02:31:17;100638.22;;;16.22;100.00
76434;BME280;65265;53.200;6.080;2023-07-31T02:36:08;100641.66;;;16.21;100.00
76434;BME280;65265;53.200;6.080;2023-07-31T02:41:00;100626.16;;;16.16;100.00
76434;BME280;65265;53.200;6.080;2023-07-31T02:45:53;100616.66;;;16.14;100.00
76434;BME280;65265;53.200;6.080;2023-07-31T02:50:44;100620.06;;;16.13;100.00
76434;BME280;65265;53.200;6.080;2023-07-31T02:55:36;100616.63;;;16.12;100.00
76434;BME280;65265;53.200;6.080;2023-07-31T03:00:27;100614.88;;;16.11;100.00
76434;BME280;65265;53.200;6.080;2023-07-31T03:05:20;100615.72;;;16.10;100.00
76434;BME280;65265;53.200;6.080;2023-07-31T03:10:12;100616.53;;;16.08;100.00
76434;BME280;65265;53.200;6.080;2023-07-31T03:15:04;100613.13;;;16.07;100.00
76434;BME280;65265;53.200;6.080;2023-07-31T03:19:55;100615.69;;;16.07;100.00
76434;BME280;65265;53.200;6.080;2023-07-31T03:24:48;100614.75;;;16.01;100.00
76434;BME280;65265;53.200;6.080;2023-07-31T03:29:39;100615.59;;;16.01;100.00
76434;BME280;65265;53.200;6.080;2023-07-31T03:34:31;100605.25;;;15.98;100.00
76434;BME280;65265;53.200;6.080;2023-07-31T03:39:23;100598.38;;;16.00;100.00
76434;BME280;65265;53.200;6.080;2023-07-31T03:44:15;100583.72;;;15.98;100.00
76434;BME280;65265;53.200;6.080;2023-07-31T03:49:07;100581.22;;;16.02;100.00
76434;BME280;65265;53.200;6.080;2023-07-31T03:53:59;100579.44;;;15.98;100.00
76434;BME280;65265;53.200;6.080;2023-07-31T03:58:51;100579.47;;;16.01;100.00
76434;BME280;65265;53.200;6.080;2023-07-31T04:03:44;100563.16;;;16.01;100.00
76434;BME280;65265;53.200;6.080;2023-07-31T04:08:35;100567.44;;;16.00;100.00
76434;BME280;65265;53.200;6.080;2023-07-31T04:13:29;100569.16;;;16.00;100.00
76434;BME280;65265;53.200;6.080;2023-07-31T04:18:20;100564.00;;;16.01;100.00
76434;BME280;65265;53.200;6.080;2023-07-31T04:23:13;100563.16;;;16.02;100.00
76434;BME280;65265;53.200;6.080;2023-07-31T04:28:05;100552.84;;;16.02;100.00
76434;BME280;65265;53.200;6.080;2023-07-31T04:32:57;100552.03;;;16.05;100.00
76434;BME280;65265;53.200;6.080;2023-07-31T04:37:49;100556.34;;;16.07;100.00
76434;BME280;65265;53.200;6.080;2023-07-31T04:42:42;100565.84;;;16.11;100.00
76434;BME280;65265;53.200;6.080;2023-07-31T04:47:33;100552.13;;;16.12;100.00
76434;BME280;65265;53.200;6.080;2023-07-31T04:52:24;100546.09;;;16.13;100.00
76434;BME280;65265;53.200;6.080;2023-07-31T04:57:16;100554.78;;;16.18;100.00
76434;BME280;65265;53.200;6.080;2023-07-31T05:02:11;100545.31;;;16.17;100.00
76434;BME280;65265;53.200;6.080;2023-07-31T05:07:04;100545.41;;;16.26;100.00
76434;BME280;65265;53.200;6.080;2023-07-31T05:11:55;100545.50;;;16.32;100.00
76434;BME280;65265;53.200;6.080;2023-07-31T05:16:47;100539.44;;;16.30;100.00
76434;BME280;65265;53.200;6.080;2023-07-31T05:21:40;100527.41;;;16.29;100.00
76434;BME280;65265;53.200;6.080;2023-07-31T05:26:31;100519.56;;;16.23;100.00
76434;BME280;65265;53.200;6.080;2023-07-31T05:31:23;100525.59;;;16.25;100.00
76434;BME280;65265;53.200;6.080;2023-07-31T05:36:15;100517.91;;;16.27;100.00
76434;BME280;65265;53.200;6.080;2023-07-31T05:41:08;100511.09;;;16.33;100.00
76434;BME280;65265;53.200;6.080;2023-07-31T05:45:59;100505.13;;;16.36;100.00
76434;BME280;65265;53.200;6.080;2023-07-31T05:50:51;100501.69;;;16.37;100.00
76434;BME280;65265;53.200;6.080;2023-07-31T05:55:43;100500.88;;;16.39;100.00
76434;BME280;65265;53.200;6.080;2023-07-31T06:00:35;100505.22;;;16.43;100.00
76434;BME280;65265;53.200;6.080;2023-07-31T06:05:27;100496.63;;;16.44;100.00
76434;BME280;65265;53.200;6.080;2023-07-31T06:10:20;100493.22;;;16.47;100.00
76434;BME280;65265;53.200;6.080;2023-07-31T06:15:11;100501.84;;;16.50;100.00
76434;BME280;65265;53.200;6.080;2023-07-31T06:20:06;100495.84;;;16.53;100.00
76434;BME280;65265;53.200;6.080;2023-07-31T06:24:58;100485.56;;;16.57;100.00
76434;BME280;65265;53.200;6.080;2023-07-31T06:29:50;100486.50;;;16.65;100.00
76434;BME280;65265;53.200;6.080;2023-07-31T06:34:41;100485.78;;;16.78;100.00
76434;BME280;65265;53.200;6.080;2023-07-31T06:39:34;100477.25;;;16.88;100.00
76434;BME280;65265;53.200;6.080;2023-07-31T06:44:27;100466.16;;;16.98;100.00
76434;BME280;65265;53.200;6.080;2023-07-31T06:49:19;100455.84;;;16.99;100.00
76434;BME280;65265;53.200;6.080;2023-07-31T06:54:10;100450.66;;;17.01;100.00
76434;BME280;65265;53.200;6.080;2023-07-31T06:59:04;100454.09;;;17.00;100.00
76434;BME280;65265;53.200;6.080;2023-07-31T07:03:55;100443.78;;;17.03;100.00
76434;BME280;65265;53.200;6.080;2023-07-31T07:08:46;100443.78;;;17.03;100.00
76434;BME280;65265;53.200;6.080;2023-07-31T07:13:38;100440.41;;;17.10;100.00
76434;BME280;65265;53.200;6.080;2023-07-31T07:18:31;100430.09;;;17.16;100.00
76434;BME280;65265;53.200;6.080;2023-07-31T07:23:22;100425.81;;;17.21;100.00
76434;BME280;65265;53.200;6.080;2023-07-31T07:28:13;100423.25;;;17.21;100.00
76434;BME280;65265;53.200;6.080;2023-07-31T07:33:05;100414.66;;;17.23;100.00
76434;BME280;65265;53.200;6.080;2023-07-31T07:37:58;100409.47;;;17.22;100.00
76434;BME280;65265;53.200;6.080;2023-07-31T07:42:50;100402.56;;;17.24;100.00
76434;BME280;65265;53.200;6.080;2023-07-31T07:47:42;100404.31;;;17.26;100.00
76434;BME280;65265;53.200;6.080;2023-07-31T07:52:33;100406.94;;;17.28;100.00
76434;BME280;65265;53.200;6.080;2023-07-31T07:57:27;100400.06;;;17.33;100.00
76434;BME280;65265;53.200;6.080;2023-07-31T08:02:18;100391.47;;;17.37;100.00
76434;BME280;65265;53.200;6.080;2023-07-31T08:07:10;100391.53;;;17.40;100.00
76434;BME280;65265;53.200;6.080;2023-07-31T08:12:03;100388.06;;;17.41;100.00
76434;BME280;65265;53.200;6.080;2023-07-31T08:16:55;100382.06;;;17.45;100.00
76434;BME280;65265;53.200;6.080;2023-07-31T08:21:47;100380.34;;;17.45;100.00
76434;BME280;65265;53.200;6.080;2023-07-31T08:26:38;100383.78;;;17.47;100.00
76434;BME280;65265;53.200;6.080;2023-07-31T08:31:30;100376.06;;;17.55;100.00
76434;BME280;65265;53.200;6.080;2023-07-31T08:36:23;100360.56;;;17.58;100.00
76434;BME280;65265;53.200;6.080;2023-07-31T08:41:14;100367.50;;;17.62;100.00
76434;BME280;65265;53.200;6.080;2023-07-31T08:46:07;100364.03;;;17.69;100.00
76434;BME280;65265;53.200;6.080;2023-07-31T08:50:59;100362.38;;;17.86;100.00
76434;BME280;65265;53.200;6.080;2023-07-31T08:55:54;100365.00;;;18.04;100.00
76434;BME280;65265;53.200;6.080;2023-07-31T09:00:48;100359.00;;;18.20;100.00
76434;BME280;65265;53.200;6.080;2023-07-31T09:05:42;100352.16;;;18.40;100.00
76434;BME280;65265;53.200;6.080;2023-07-31T09:10:34;100349.56;;;18.47;100.00
76434;BME280;65265;53.200;6.080;2023-07-31T09:15:27;100353.91;;;18.50;100.00
76434;BME280;65265;53.200;6.080;2023-07-31T09:20:20;100339.22;;;18.61;100.00
76434;BME280;65265;53.200;6.080;2023-07-31T09:25:16;100353.03;;;18.61;100.00
76434;BME280;65265;53.200;6.080;2023-07-31T09:30:08;100340.94;;;18.65;100.00
76434;BME280;65265;53.200;6.080;2023-07-31T09:35:05;100333.19;;;18.62;100.00
76434;BME280;65265;53.200;6.080;2023-07-31T09:40:04;100342.66;;;18.58;100.00
76434;BME280;65265;53.200;6.080;2023-07-31T09:45:06;100329.72;;;18.51;100.00
76434;BME280;65265;53.200;6.080;2023-07-31T09:49:58;100323.66;;;18.55;100.00
76434;BME280;65265;53.200;6.080;2023-07-31T09:54:52;100336.63;;;18.56;100.00
76434;BME280;65265;53.200;6.080;2023-07-31T09:59:43;100328.84;;;18.38;100.00
76434;BME280;65265;53.200;6.080;2023-07-31T10:04:35;100321.94;;;18.33;100.00
76434;BME280;65265;53.200;6.080;2023-07-31T10:09:27;100326.25;;;18.43;100.00
76434;BME280;65265;53.200;6.080;2023-07-31T10:14:23;100319.34;;;18.54;100.00
76434;BME280;65265;53.200;6.080;2023-07-31T10:19:15;100327.09;;;18.64;100.00
76434;BME280;65265;53.200;6.080;2023-07-31T10:24:07;100321.94;;;18.79;100.00
76434;BME280;65265;53.200;6.080;2023-07-31T10:28:59;100313.25;;;19.01;100.00
76434;BME280;65265;53.200;6.080;2023-07-31T10:33:53;100320.09;;;19.17;100.00
76434;BME280;65265;53.200;6.080;2023-07-31T10:38:46;100315.78;;;19.19;100.00
76434;BME280;65265;53.200;6.080;2023-07-31T10:43:39;100310.59;;;19.24;100.00
76434;BME280;65265;53.200;6.080;2023-07-31T10:48:33;100316.66;;;19.12;100.00
76434;BME280;65265;53.200;6.080;2023-07-31T10:53:29;100327.91;;;19.01;100.00
76434;BME280;65265;53.200;6.080;2023-07-31T10:58:21;100329.69;;;18.78;100.00
76434;BME280;65265;53.200;6.080;2023-07-31T11:03:15;100329.69;;;18.66;100.00
76434;BME280;65265;53.200;6.080;2023-07-31T11:08:11;100330.59;;;18.66;100.00
76434;BME280;65265;53.200;6.080;2023-07-31T11:13:05;100332.31;;;18.67;100.00
76434;BME280;65265;53.200;6.080;2023-07-31T11:17:57;100327.09;;;18.78;100.00
76434;BME280;65265;53.200;6.080;2023-07-31T11:22:48;100324.44;;;19.02;100.00
76434;BME280;65265;53.200;6.080;2023-07-31T11:27:41;100336.56;;;19.00;100.00
76434;BME280;65265;53.200;6.080;2023-07-31T11:32:36;100334.00;;;18.89;100.00
76434;BME280;65265;53.200;6.080;2023-07-31T11:37:39;100320.19;;;18.75;100.00
76434;BME280;65265;53.200;6.080;2023-07-31T11:42:30;100316.75;;;18.64;100.00
76434;BME280;65265;53.200;6.080;2023-07-31T11:47:22;100314.16;;;18.69;100.00
76434;BME280;65265;53.200;6.080;2023-07-31T11:52:15;100324.50;;;18.76;100.00
76434;BME280;65265;53.200;6.080;2023-07-31T11:57:07;100323.66;;;18.85;100.00
76434;BME280;65265;53.200;6.080;2023-07-31T12:01:59;100322.75;;;18.84;100.00
76434;BME280;65265;53.200;6.080;2023-07-31T12:06:52;100317.53;;;19.01;100.00
76434;BME280;65265;53.200;6.080;2023-07-31T12:11:46;100315.81;;;19.00;100.00
76434;BME280;65265;53.200;6.080;2023-07-31T12:16:38;100323.59;;;19.18;100.00
76434;BME280;65265;53.200;6.080;2023-07-31T12:21:30;100314.91;;;19.25;100.00
76434;BME280;65265;53.200;6.080;2023-07-31T12:26:21;100324.44;;;19.20;100.00
76434;BME280;65265;53.200;6.080;2023-07-31T12:31:16;100318.41;;;19.18;100.00
76434;BME280;65265;53.200;6.080;2023-07-31T12:36:10;100317.50;;;19.16;100.00
76434;BME280;65265;53.200;6.080;2023-07-31T12:41:02;100311.47;;;19.21;100.00
76434;BME280;65265;53.200;6.080;2023-07-31T12:45:54;100310.59;;;19.12;100.00
76434;BME280;65265;53.200;6.080;2023-07-31T12:50:47;100308.03;;;19.04;100.00
76434;BME280;65265;53.200;6.080;2023-07-31T12:55:38;100305.41;;;19.12;100.00
76434;BME280;65265;53.200;6.080;2023-07-31T13:00:30;100309.75;;;19.23;100.00
76434;BME280;65265;53.200;6.080;2023-07-31T13:05:21;100303.66;;;19.26;100.00
76434;BME280;65265;53.200;6.080;2023-07-31T13:10:14;100298.47;;;19.32;100.00
76434;BME280;65265;53.200;6.080;2023-07-31T13:15:07;100287.25;;;19.24;100.00
76434;BME280;65265;53.200;6.080;2023-07-31T13:19:58;100299.34;;;19.26;100.00
76434;BME280;65265;53.200;6.080;2023-07-31T13:24:50;100295.88;;;19.30;100.00
76434;BME280;65265;53.200;6.080;2023-07-31T13:29:43;100299.22;;;19.56;100.00
76434;BME280;65265;53.200;6.080;2023-07-31T13:34:35;100300.88;;;19.66;100.00
76434;BME280;65265;53.200;6.080;2023-07-31T13:39:26;100296.50;;;19.78;100.00
76434;BME280;65265;53.200;6.080;2023-07-31T13:44:17;100315.44;;;19.88;100.00
76434;BME280;65265;53.200;6.080;2023-07-31T15:17:46;100236.34;;;19.00;100.00
76434;BME280;65265;53.200;6.080;2023-07-31T15:22:38;100226.84;;;19.01;100.00
76434;BME280;65265;53.200;6.080;2023-07-31T15:27:30;100211.28;;;18.96;100.00
76434;BME280;65265;53.200;6.080;2023-07-31T15:32:21;100193.16;;;18.98;100.00
76434;BME280;65265;53.200;6.080;2023-07-31T15:37:15;100185.38;;;19.01;100.00
76434;BME280;65265;53.200;6.080;2023-07-31T15:42:07;100183.66;;;19.00;100.00
76434;BME280;65265;53.200;6.080;2023-07-31T15:46:59;100200.91;;;19.01;100.00
76434;BME280;65265;53.200;6.080;2023-07-31T15:51:51;100173.28;;;19.00;100.00
76434;BME280;65265;53.200;6.080;2023-07-31T15:56:44;100178.44;;;19.03;100.00
76434;BME280;65265;53.200;6.080;2023-07-31T16:01:35;100168.09;;;19.01;100.00
76434;BME280;65265;53.200;6.080;2023-07-31T16:06:27;100163.75;;;19.02;100.00
76434;BME280;65265;53.200;6.080;2023-07-31T16:11:19;100159.44;;;19.01;100.00
76434;BME280;65265;53.200;6.080;2023-07-31T16:16:12;100158.59;;;18.99;100.00
76434;BME280;65265;53.200;6.080;2023-07-31T16:21:03;100156.84;;;19.04;100.00
76434;BME280;65265;53.200;6.080;2023-07-31T16:25:54;100154.25;;;19.05;100.00
76434;BME280;65265;53.200;6.080;2023-07-31T16:30:46;100149.91;;;19.09;100.00
76434;BME280;65265;53.200;6.080;2023-07-31T16:35:39;100140.41;;;19.08;100.00
76434;BME280;65265;53.200;6.080;2023-07-31T16:40:30;100132.63;;;19.05;100.00
76434;BME280;65265;53.200;6.080;2023-07-31T16:45:22;100130.94;;;18.99;100.00
76434;BME280;65265;53.200;6.080;2023-07-31T16:50:13;100130.09;;;18.93;100.00
76434;BME280;65265;53.200;6.080;2023-07-31T16:55:08;100120.63;;;18.87;100.00
76434;BME280;65265;53.200;6.080;2023-07-31T17:00:00;100112.03;;;18.87;100.00
76434;BME280;65265;53.200;6.080;2023-07-31T17:04:52;100095.59;;;18.88;100.00
76434;BME280;65265;53.200;6.080;2023-07-31T17:09:44;100081.81;;;18.81;100.00
76434;BME280;65265;53.200;6.080;2023-07-31T17:14:36;100077.56;;;18.70;100.00
76434;BME280;65265;53.200;6.080;2023-07-31T17:19:28;100055.16;;;18.63;100.00
76434;BME280;65265;53.200;6.080;2023-07-31T17:24:19;100068.13;;;18.58;100.00
76434;BME280;65265;53.200;6.080;2023-07-31T17:29:14;100065.53;;;18.57;100.00
76434;BME280;65265;53.200;6.080;2023-07-31T17:34:07;100072.47;;;18.52;100.00
76434;BME280;65265;53.200;6.080;2023-07-31T17:38:59;100073.34;;;18.51;100.00
76434;BME280;65265;53.200;6.080;2023-07-31T17:43:50;100062.09;;;18.49;100.00
76434;BME280;65265;53.200;6.080;2023-07-31T17:48:42;100051.78;;;18.47;100.00
76434;BME280;65265;53.200;6.080;2023-07-31T17:53:36;100041.41;;;18.47;100.00
76434;BME280;65265;53.200;6.080;2023-07-31T17:58:27;100050.06;;;18.45;100.00
76434;BME280;65265;53.200;6.080;2023-07-31T18:03:19;100032.75;;;18.51;100.00
76434;BME280;65265;53.200;6.080;2023-07-31T18:08:11;100020.63;;;18.58;100.00
76434;BME280;65265;53.200;6.080;2023-07-31T18:13:04;100024.94;;;18.59;100.00
76434;BME280;65265;53.200;6.080;2023-07-31T18:17:55;100012.88;;;18.58;100.00
76434;BME280;65265;53.200;6.080;2023-07-31T18:22:47;100031.88;;;18.57;100.00
76434;BME280;65265;53.200;6.080;2023-07-31T18:27:38;100029.28;;;18.52;100.00
76434;BME280;65265;53.200;6.080;2023-07-31T18:32:31;100024.16;;;18.51;100.00
76434;BME280;65265;53.200;6.080;2023-07-31T18:37:23;100000.00;;;18.46;100.00
76434;BME280;65265;53.200;6.080;2023-07-31T18:42:14;99985.31;;;18.46;100.00
76434;BME280;65265;53.200;6.080;2023-07-31T18:47:06;99996.53;;;18.47;100.00
76434;BME280;65265;53.200;6.080;2023-07-31T18:51:59;99993.97;;;18.44;100.00
76434;BME280;65265;53.200;6.080;2023-07-31T18:56:51;99993.13;;;18.42;100.00
76434;BME280;65265;53.200;6.080;2023-07-31T19:01:43;99975.03;;;18.34;100.00
76434;BME280;65265;53.200;6.080;2023-07-31T19:06:36;99973.34;;;18.29;100.00
76434;BME280;65265;53.200;6.080;2023-07-31T19:11:31;99966.44;;;18.22;100.00
76434;BME280;65265;53.200;6.080;2023-07-31T19:16:22;99968.16;;;18.18;100.00
76434;BME280;65265;53.200;6.080;2023-07-31T19:21:14;99957.00;;;18.13;100.00
76434;BME280;65265;53.200;6.080;2023-07-31T19:26:05;99941.50;;;18.06;100.00
76434;BME280;65265;53.200;6.080;2023-07-31T19:30:58;99945.81;;;18.07;100.00
76434;BME280;65265;53.200;6.080;2023-07-31T19:35:54;99945.03;;;17.87;100.00
76434;BME280;65265;53.200;6.080;2023-07-31T19:40:46;99947.63;;;17.78;100.00
76434;BME280;65265;53.200;6.080;2023-07-31T19:45:38;99949.41;;;17.67;100.00
76434;BME280;65265;53.200;6.080;2023-07-31T19:50:31;99945.16;;;17.51;100.00
76434;BME280;65265;53.200;6.080;2023-07-31T19:55:23;99943.41;;;17.47;100.00
76434;BME280;65265;53.200;6.080;2023-07-31T20:00:15;99946.88;;;17.37;100.00
76434;BME280;65265;53.200;6.080;2023-07-31T20:05:07;99946.00;;;17.30;100.00
76434;BME280;65265;53.200;6.080;2023-07-31T20:10:00;99929.66;;;17.18;100.00
76434;BME280;65265;53.200;6.080;2023-07-31T20:14:52;99936.53;;;17.13;100.00
76434;BME280;65265;53.200;6.080;2023-07-31T20:19:44;99924.50;;;17.01;100.00
76434;BME280;65265;53.200;6.080;2023-07-31T20:24:35;99928.81;;;16.99;100.00
76434;BME280;65265;53.200;6.080;2023-07-31T20:29:28;99915.88;;;16.92;100.00
76434;BME280;65265;53.200;6.080;2023-07-31T20:34:20;99922.78;;;16.90;100.00
76434;BME280;65265;53.200;6.080;2023-07-31T20:39:11;99915.03;;;16.87;100.00
76434;BME280;65265;53.200;6.080;2023-07-31T20:44:03;99910.75;;;16.86;100.00
76434;BME280;65265;53.200;6.080;2023-07-31T20:48:56;99896.09;;;16.87;100.00
76434;BME280;65265;53.200;6.080;2023-07-31T20:53:47;99893.53;;;16.85;100.00
76434;BME280;65265;53.200;6.080;2023-07-31T20:58:41;99895.25;;;16.83;100.00
76434;BME280;65265;53.200;6.080;2023-07-31T21:03:33;99886.66;;;16.84;100.00
76434;BME280;65265;53.200;6.080;2023-07-31T21:08:26;99878.88;;;16.87;100.00
76434;BME280;65265;53.200;6.080;2023-07-31T21:13:18;99869.41;;;16.86;100.00
76434;BME280;65265;53.200;6.080;2023-07-31T21:18:09;99862.53;;;16.88;100.00
76434;BME280;65265;53.200;6.080;2023-07-31T21:23:01;99855.63;;;16.90;100.00
76434;BME280;65265;53.200;6.080;2023-07-31T21:27:58;99841.88;;;16.94;100.00
76434;BME280;65265;53.200;6.080;2023-07-31T21:32:50;99841.88;;;16.88;100.00
76434;BME280;65265;53.200;6.080;2023-07-31T21:37:41;99839.28;;;16.90;100.00
76434;BME280;65265;53.200;6.080;2023-07-31T21:42:33;99821.19;;;16.82;100.00
76434;BME280;65265;53.200;6.080;2023-07-31T21:47:26;99822.94;;;16.85;100.00
76434;BME280;65265;53.200;6.080;2023-07-31T21:52:17;99825.50;;;16.80;100.00
76434;BME280;65265;53.200;6.080;2023-07-31T21:57:08;99827.25;;;16.80;100.00
76434;BME280;65265;53.200;6.080;2023-07-31T22:02:00;99820.34;;;16.80;100.00
76434;BME280;65265;53.200;6.080;2023-07-31T22:06:54;99819.50;;;16.78;100.00
76434;BME280;65265;53.200;6.080;2023-07-31T22:11:45;99811.75;;;16.77;100.00
76434;BME280;65265;53.200;6.080;2023-07-31T22:16:37;99810.88;;;16.79;100.00
76434;BME280;65265;53.200;6.080;2023-07-31T22:21:28;99797.09;;;16.76;100.00
76434;BME280;65265;53.200;6.080;2023-07-31T22:26:21;99787.66;;;16.75;100.00
76434;BME280;65265;53.200;6.080;2023-07-31T22:31:12;99798.88;;;16.72;100.00
76434;BME280;65265;53.200;6.080;2023-07-31T22:36:04;99777.34;;;16.72;100.00
76434;BME280;65265;53.200;6.080;2023-07-31T22:40:55;99769.59;;;16.67;100.00
76434;BME280;65265;53.200;6.080;2023-07-31T22:45:49;99773.03;;;16.65;100.00
76434;BME280;65265;53.200;6.080;2023-07-31T22:50:40;99765.31;;;16.63;100.00
76434;BME280;65265;53.200;6.080;2023-07-31T22:55:32;99753.25;;;16.61;100.00
76434;BME280;65265;53.200;6.080;2023-07-31T23:00:23;99761.00;;;16.62;100.00
76434;BME280;65265;53.200;6.080;2023-07-31T23:05:16;99755.81;;;16.59;100.00
76434;BME280;65265;53.200;6.080;2023-07-31T23:10:08;99760.16;;;16.63;100.00
76434;BME280;65265;53.200;6.080;2023-07-31T23:14:59;99754.13;;;16.61;100.00
76434;BME280;65265;53.200;6.080;2023-07-31T23:19:51;99744.66;;;16.54;100.00
76434;BME280;65265;53.200;6.080;2023-07-31T23:24:44;99737.78;;;16.47;100.00
76434;BME280;65265;53.200;6.080;2023-07-31T23:29:37;99727.44;;;16.35;100.00
76434;BME280;65265;53.200;6.080;2023-07-31T23:34:28;99735.19;;;16.32;100.00
76434;BME280;65265;53.200;6.080;2023-07-31T23:39:20;99741.22;;;16.27;100.00
76434;BME280;65265;53.200;6.080;2023-07-31T23:44:14;99732.63;;;16.23;100.00
76434;BME280;65265;53.200;6.080;2023-07-31T23:49:05;99735.22;;;16.20;100.00
76434;BME280;65265;53.200;6.080;2023-07-31T23:53:56;99736.94;;;16.18;100.00
76434;BME280;65265;53.200;6.080;2023-07-31T23:58:48;99728.34;;;16.15;100.00
